PATC/TNC METAR and TAF weather

Enter ICAO airport designator
Station Type Date Time Source
PATC METAR 2019/04/25 15:55 UTC NOAA

PATC 251555Z 21014KT 10SM BKN023 M03/M05 A3026 RMK AO2A SLP253 RCRNR BWC LOW


Station Type Date Time Source
PATC Decoded METAR 2019/04/25 15:55 UTC NOAA

Tin City Airways Facilities Sector, AK, United States (PATC) 65-34N 167-55W
Apr 25, 2019 - 11:55 AM EDT / 2019.04.25 1555 UTC
Wind: from the SSW (210 degrees) at 16 MPH (14 KT):0
Visibility: 10 mile(s):0
Sky conditions: mostly cloudy
Temperature: 26 F (-3 C)
Windchill: 14 F (-10 C):1
Dew Point: 23 F (-5 C)
Relative Humidity: 86%
Pressure (altimeter): 30.26 in. Hg (1024 hPa)
ob: PATC 251555Z 21014KT 10SM BKN023 M03/M05 A3026 RMK AO2A SLP253 RCRNR BWC LOW
cycle: 16

Station Type Date Time Source
PATC TAF 2016/08/27 04:12 UTC NOAA

TAF PATC 270400Z 2704/2810 18012G18KT 0400 FG OVC002 QNH3015INS TX10/2718Z TN06/2710Z

Example: see airport list